CheckWX is a tool to help pilots better visualize weather data.  It is not intended as a substitute for an official pre-flight weather briefing.

04:24:00 UTC

DABB METAR
Annaba Airport
Annabah, Algeria
Current

24 mins ago

DABB 250400Z 00000KT 9999 FEW020 13/12 Q1014
Observed
Apr-25 @ 04:00 UTC
Visibility
10,000+ meters
Flight Rules
VFR
Cloud Levels
  • Few at 2,000' AGL
Temperature
13°C / 55°F
Dewpoint
12°C / 54°F
Humidity
94%
Altimeter
29.94" Hg
Pressure
1013.92 hPa
Previous

54 mins ago

DABB 250330Z 00000KT 9999 FEW020 13/12 Q1014
Observed
Apr-25 @ 03:30 UTC
Visibility
10,000+ meters
Flight Rules
VFR
Cloud Levels
  • Few at 2,000' AGL
Temperature
13°C / 55°F
Dewpoint
12°C / 54°F
Humidity
94%
Altimeter
29.94" Hg
Pressure
1013.92 hPa
Previous

1 hour ago

DABB 250300Z 00000KT 9999 FEW020 13/12 Q1014
Observed
Apr-25 @ 03:00 UTC
Visibility
10,000+ meters
Flight Rules
VFR
Cloud Levels
  • Few at 2,000' AGL
Temperature
13°C / 55°F
Dewpoint
12°C / 54°F
Humidity
94%
Altimeter
29.94" Hg
Pressure
1013.92 hPa